createdAt,value
2019-02-25T00:01:43.730Z,-1.65
2019-02-25T00:04:09.587Z,-1.57
2019-02-25T00:06:35.514Z,-1.46
2019-02-25T00:09:01.375Z,-1.49
2019-02-25T00:11:27.258Z,-1.58
2019-02-25T00:13:53.128Z,-1.60
2019-02-25T00:17:00.619Z,-1.59
2019-02-25T00:19:26.479Z,-1.51
2019-02-25T00:21:52.316Z,-1.63
2019-02-25T00:24:18.155Z,-1.89
2019-02-25T00:26:44.003Z,-1.83
2019-02-25T00:29:09.848Z,-1.70
2019-02-25T00:31:35.702Z,-1.80
2019-02-25T00:34:01.563Z,-1.75
2019-02-25T00:36:27.448Z,-2.02
2019-02-25T00:38:53.326Z,-2.17
2019-02-25T00:41:19.229Z,-2.24
2019-02-25T00:43:45.147Z,-2.50
2019-02-25T00:46:11.027Z,-2.27
2019-02-25T00:48:36.854Z,-2.05
2019-02-25T00:51:02.718Z,-2.02
2019-02-25T00:53:28.555Z,-1.91
2019-02-25T00:55:54.390Z,-1.85
2019-02-25T00:58:20.342Z,-1.88
2019-02-25T01:00:46.193Z,-1.87
2019-02-25T01:03:12.067Z,-1.79
2019-02-25T01:05:37.998Z,-1.88
2019-02-25T01:10:38.063Z,-1.69
2019-02-25T01:13:04.034Z,-1.76
2019-02-25T01:15:29.853Z,-2.06
2019-02-25T01:17:55.749Z,-2.02
2019-02-25T01:20:21.609Z,-2.03
2019-02-25T01:22:47.545Z,-2.03
2019-02-25T01:25:55.311Z,-1.87
2019-02-25T01:28:21.174Z,-1.87
2019-02-25T01:31:06.895Z,-2.05
2019-02-25T01:33:32.754Z,-2.05
2019-02-25T01:35:58.592Z,-2.04
2019-02-25T01:38:24.449Z,-2.16
2019-02-25T01:40:50.291Z,-2.04
2019-02-25T01:43:16.133Z,-2.13
2019-02-25T01:45:42.001Z,-2.17
2019-02-25T01:48:07.826Z,-2.30
2019-02-25T01:50:33.740Z,-2.37
2019-02-25T01:52:59.613Z,-2.51
2019-02-25T01:55:25.460Z,-2.15
2019-02-25T01:57:51.276Z,-2.36
2019-02-25T02:00:58.799Z,-2.40
2019-02-25T02:03:24.646Z,-2.32
2019-02-25T02:05:50.481Z,-2.30
2019-02-25T02:08:16.301Z,-2.26
2019-02-25T02:10:42.130Z,-2.22
2019-02-25T02:13:14.248Z,-2.27
2019-02-25T02:15:35.724Z,-2.31
2019-02-25T02:18:01.552Z,-2.51
2019-02-25T02:20:27.450Z,-2.47
2019-02-25T02:22:53.293Z,-2.38
2019-02-25T02:25:19.123Z,-2.26
2019-02-25T02:27:44.957Z,-2.31
2019-02-25T02:30:30.652Z,-2.31
2019-02-25T02:32:56.478Z,-2.49
2019-02-25T02:35:22.332Z,-2.64
2019-02-25T02:37:48.153Z,-2.60
2019-02-25T02:40:14.208Z,-2.55
2019-02-25T02:43:00.114Z,-2.56
2019-02-25T02:46:05.702Z,-2.49
2019-02-25T02:49:13.175Z,-2.48
2019-02-25T02:51:39.018Z,-2.35
2019-02-25T02:54:04.846Z,-2.52
2019-02-25T02:56:30.687Z,-2.58
2019-02-25T02:58:56.510Z,-2.42
2019-02-25T03:01:22.365Z,-2.51
2019-02-25T03:03:48.202Z,-2.62
2019-02-25T03:06:14.066Z,-2.72
2019-02-25T03:08:39.900Z,-2.62
2019-02-25T03:11:05.715Z,-2.69
2019-02-25T03:13:31.560Z,-2.62
2019-02-25T03:15:57.384Z,-2.71
2019-02-25T03:18:23.242Z,-2.91
2019-02-25T03:20:49.060Z,-3.06
2019-02-25T03:23:14.892Z,-2.97
2019-02-25T03:25:40.740Z,-2.95
2019-02-25T03:28:06.555Z,-2.91
2019-02-25T03:30:32.397Z,-2.93
2019-02-25T03:32:58.299Z,-2.84
2019-02-25T03:35:24.125Z,-2.84
2019-02-25T03:37:49.966Z,-2.87
2019-02-25T03:40:57.458Z,-3.05
2019-02-25T03:43:23.441Z,-2.92
2019-02-25T03:45:49.274Z,-3.10
2019-02-25T03:48:15.100Z,-3.28
2019-02-25T03:50:40.934Z,-3.11
2019-02-25T03:53:06.760Z,-3.01
2019-02-25T03:55:32.588Z,-3.00
2019-02-25T03:57:58.396Z,-2.95
2019-02-25T04:01:05.894Z,-2.99
2019-02-25T04:03:31.923Z,-3.13
2019-02-25T04:05:57.749Z,-3.11
2019-02-25T04:08:23.657Z,-3.05
2019-02-25T04:10:49.491Z,-3.05
2019-02-25T04:13:15.302Z,-2.96
2019-02-25T04:18:14.778Z,-2.99
2019-02-25T04:20:40.717Z,-2.90
2019-02-25T04:23:06.526Z,-2.91
2019-02-25T04:25:32.361Z,-2.93
2019-02-25T04:27:58.187Z,-2.93
2019-02-25T04:30:24.020Z,-3.02
2019-02-25T04:32:49.867Z,-3.13
2019-02-25T04:35:15.676Z,-3.20
2019-02-25T04:37:41.615Z,-3.19
2019-02-25T04:40:49.181Z,-3.20
2019-02-25T04:43:15.037Z,-3.17
2019-02-25T04:45:40.857Z,-3.15
2019-02-25T04:48:06.690Z,-3.21
2019-02-25T04:50:32.520Z,-3.44
2019-02-25T04:52:58.418Z,-3.33
2019-02-25T04:55:24.241Z,-3.29
2019-02-25T04:57:50.108Z,-3.28
2019-02-25T05:00:57.580Z,-3.17
2019-02-25T05:03:23.406Z,-3.01
2019-02-25T05:05:49.232Z,-3.20
2019-02-25T05:08:15.091Z,-3.39
2019-02-25T05:10:40.885Z,-3.25
2019-02-25T05:15:40.383Z,-3.51
2019-02-25T05:18:06.209Z,-3.58
2019-02-25T05:20:32.019Z,-3.65
2019-02-25T05:22:57.861Z,-3.37
2019-02-25T05:25:23.690Z,-3.49
2019-02-25T05:27:49.527Z,-3.48
2019-02-25T05:30:57.021Z,-3.59
2019-02-25T05:33:22.877Z,-3.63
2019-02-25T05:35:48.985Z,-3.70
2019-02-25T05:38:14.819Z,-3.51
2019-02-25T05:40:40.641Z,-3.43
2019-02-25T05:43:06.485Z,-3.34
2019-02-25T05:45:32.321Z,-3.40
2019-02-25T05:47:58.148Z,-3.36
2019-02-25T05:50:23.985Z,-3.21
2019-02-25T05:52:49.833Z,-3.48
2019-02-25T05:58:09.767Z,-3.44
2019-02-25T06:03:09.591Z,-3.52
2019-02-25T06:05:35.442Z,-3.65
2019-02-25T06:08:01.257Z,-3.69
2019-02-25T06:10:27.091Z,-3.67
2019-02-25T06:12:52.930Z,-3.66
2019-02-25T06:16:00.416Z,-3.70
2019-02-25T06:18:26.271Z,-3.74
2019-02-25T06:20:52.105Z,-3.72
2019-02-25T06:23:17.930Z,-3.62
2019-02-25T06:25:43.773Z,-3.53
2019-02-25T06:28:09.598Z,-3.72
2019-02-25T06:30:35.417Z,-3.62
2019-02-25T06:33:01.260Z,-3.60
2019-02-25T06:35:27.079Z,-3.65
2019-02-25T06:37:52.930Z,-4.17
2019-02-25T06:41:00.401Z,-4.07
2019-02-25T06:43:26.223Z,-3.96
2019-02-25T06:45:52.112Z,-3.73
2019-02-25T06:48:17.867Z,-3.68
2019-02-25T06:50:43.710Z,-3.55
2019-02-25T06:53:09.538Z,-3.49
2019-02-25T06:55:35.379Z,-3.39
2019-02-25T06:58:01.205Z,-3.37
2019-02-25T07:00:27.057Z,-3.53
2019-02-25T07:02:52.903Z,-3.57
2019-02-25T07:05:38.618Z,-3.87
2019-02-25T07:08:24.315Z,-3.52
2019-02-25T07:11:10.038Z,-3.20
2019-02-25T07:13:55.735Z,-3.19
2019-02-25T07:16:41.463Z,-3.19
2019-02-25T07:19:27.166Z,-3.09
2019-02-25T07:30:01.319Z,-2.74
2019-02-25T07:32:47.004Z,-2.73
2019-02-25T07:35:32.828Z,-2.78
2019-02-25T07:38:18.547Z,-2.76
2019-02-25T07:48:59.165Z,-2.31
2019-02-25T07:51:44.857Z,-2.19
2019-02-25T07:54:30.574Z,-2.10
2019-02-25T07:57:16.280Z,-1.94
2019-02-25T08:00:02.259Z,-1.82
2019-02-25T08:02:47.970Z,-1.55
2019-02-25T08:05:33.692Z,-1.40
2019-02-25T08:10:53.234Z,-1.17
2019-02-25T08:19:00.029Z,-0.74
2019-02-25T08:21:45.728Z,-0.60
2019-02-25T08:24:31.457Z,-0.30
2019-02-25T08:27:17.164Z,-0.31
2019-02-25T08:30:02.888Z,-0.20
2019-02-25T08:32:48.863Z,0.17
2019-02-25T08:35:56.395Z,0.18
2019-02-25T08:41:49.400Z,0.27
2019-02-25T08:44:35.103Z,0.36
2019-02-25T08:47:20.833Z,0.12
2019-02-25T08:52:34.293Z,0.79
2019-02-25T08:55:00.327Z,1.13
2019-02-25T08:57:27.871Z,1.16
2019-02-25T08:59:53.710Z,1.56
2019-02-25T09:02:19.549Z,1.59
2019-02-25T09:04:45.373Z,1.73
2019-02-25T09:07:11.211Z,1.90
2019-02-25T09:09:37.038Z,2.06
2019-02-25T09:12:02.875Z,2.19
2019-02-25T09:14:28.700Z,2.38
2019-02-25T09:16:54.864Z,2.43
2019-02-25T09:19:20.705Z,2.37
2019-02-25T09:21:46.513Z,2.46
2019-02-25T09:24:12.347Z,2.69
2019-02-25T09:26:38.179Z,3.01
2019-02-25T09:29:04.028Z,3.10
2019-02-25T09:31:29.843Z,3.25
2019-02-25T09:33:55.658Z,3.43
2019-02-25T09:36:21.487Z,3.41
2019-02-25T09:38:47.644Z,3.39
2019-02-25T09:41:13.469Z,3.65
2019-02-25T09:43:39.297Z,3.59
2019-02-25T09:46:05.115Z,3.62
2019-02-25T09:48:30.941Z,3.67
2019-02-25T09:50:56.775Z,3.71
2019-02-25T09:53:22.611Z,3.93
2019-02-25T09:55:48.429Z,4.31
2019-02-25T09:58:14.240Z,4.44
2019-02-25T10:00:40.101Z,4.65
2019-02-25T10:03:05.936Z,4.83
2019-02-25T10:05:31.826Z,4.86
2019-02-25T10:07:57.606Z,4.92
2019-02-25T10:10:23.472Z,5.41
2019-02-25T10:12:49.277Z,5.62
2019-02-25T10:15:56.751Z,5.61
2019-02-25T10:18:22.558Z,6.10
2019-02-25T10:20:48.427Z,6.02
2019-02-25T10:23:14.246Z,6.02
2019-02-25T10:25:40.111Z,6.26
2019-02-25T10:28:05.961Z,6.73
2019-02-25T10:30:34.392Z,7.01
2019-02-25T10:33:00.892Z,6.88
2019-02-25T10:36:09.730Z,7.10
2019-02-25T10:38:37.481Z,7.28
2019-02-25T10:41:03.347Z,7.14
2019-02-25T10:43:29.684Z,7.11
2019-02-25T10:46:17.666Z,7.54
2019-02-25T10:49:11.205Z,7.77
2019-02-25T10:51:31.175Z,7.77
2019-02-25T10:53:57.009Z,7.85
2019-02-25T10:57:04.482Z,8.00
2019-02-25T10:59:32.145Z,8.00
2019-02-25T11:01:58.137Z,7.96
2019-02-25T11:04:26.100Z,8.19
2019-02-25T11:06:51.693Z,8.40
2019-02-25T11:09:59.208Z,8.94
2019-02-25T11:13:06.707Z,9.04
2019-02-25T11:15:52.522Z,9.18
2019-02-25T11:18:20.259Z,9.18
2019-02-25T11:21:08.296Z,8.95
2019-02-25T11:23:53.660Z,9.13
2019-02-25T11:26:19.490Z,9.13
2019-02-25T11:28:45.377Z,9.24
2019-02-25T11:31:31.173Z,9.84
2019-02-25T11:34:16.903Z,10.66
2019-02-25T11:37:02.611Z,10.77
2019-02-25T11:39:48.331Z,10.63
2019-02-25T11:42:16.454Z,10.63
2019-02-25T11:45:04.427Z,10.74
2019-02-25T11:47:49.818Z,10.91
2019-02-25T11:50:57.315Z,10.91
2019-02-25T11:53:23.144Z,11.13
2019-02-25T11:55:48.981Z,11.10
2019-02-25T11:58:14.811Z,11.34
2019-02-25T12:00:40.650Z,11.17
2019-02-25T12:03:06.501Z,11.36
2019-02-25T12:05:32.321Z,11.32
2019-02-25T12:07:58.173Z,11.36
2019-02-25T12:10:23.983Z,11.44
2019-02-25T12:12:49.820Z,11.58
2019-02-25T12:15:57.305Z,12.00
2019-02-25T12:18:23.185Z,12.25
2019-02-25T12:20:49.020Z,12.60
2019-02-25T12:23:14.868Z,12.57
2019-02-25T12:25:40.690Z,12.80
2019-02-25T12:28:06.523Z,13.14
2019-02-25T12:30:32.361Z,13.29
2019-02-25T12:32:58.187Z,13.54
2019-02-25T12:35:24.009Z,13.76
2019-02-25T12:37:49.864Z,13.72
2019-02-25T12:40:57.360Z,14.37
2019-02-25T12:43:23.266Z,14.52
2019-02-25T12:45:49.095Z,14.25
2019-02-25T12:48:14.965Z,14.28
2019-02-25T12:50:40.882Z,14.33
2019-02-25T12:53:06.695Z,14.71
2019-02-25T12:58:11.833Z,14.70
2019-02-25T13:00:37.713Z,14.84
2019-02-25T13:03:03.534Z,14.66
2019-02-25T13:05:29.375Z,15.01
2019-02-25T13:07:55.240Z,15.45
2019-02-25T13:10:21.110Z,15.51
2019-02-25T13:12:47.047Z,15.57
2019-02-25T13:15:54.544Z,16.41
2019-02-25T13:18:20.365Z,16.42
2019-02-25T13:20:46.232Z,15.45
2019-02-25T13:23:12.098Z,15.55
2019-02-25T13:25:38.029Z,15.80
2019-02-25T13:28:04.262Z,16.14
2019-02-25T13:30:31.612Z,16.98
2019-02-25T13:32:57.444Z,16.59
2019-02-25T13:35:23.305Z,17.78
2019-02-25T13:37:49.180Z,18.19
2019-02-25T13:40:56.694Z,17.27
2019-02-25T13:43:22.637Z,18.12
2019-02-25T13:45:48.560Z,16.80
2019-02-25T13:48:14.445Z,16.77
2019-02-25T13:50:40.265Z,17.07
2019-02-25T13:53:06.132Z,16.48
2019-02-25T13:55:31.960Z,17.43
2019-02-25T13:57:59.755Z,18.15
2019-02-25T14:01:07.234Z,18.25
2019-02-25T14:03:33.062Z,18.54
2019-02-25T14:05:58.931Z,16.91
2019-02-25T14:08:26.806Z,16.90
2019-02-25T14:10:52.674Z,17.38
2019-02-25T14:13:18.558Z,17.36
2019-02-25T14:15:44.373Z,16.54
2019-02-25T14:18:10.225Z,16.57
2019-02-25T14:20:36.138Z,17.23
2019-02-25T14:23:01.978Z,17.05
2019-02-25T14:26:09.497Z,17.48
2019-02-25T14:28:35.381Z,17.28
2019-02-25T14:31:01.304Z,16.46
2019-02-25T14:33:27.159Z,16.07
2019-02-25T14:35:54.975Z,16.28
2019-02-25T14:38:30.009Z,16.59
2019-02-25T14:40:56.778Z,17.17
2019-02-25T14:43:25.447Z,16.41
2019-02-25T14:45:54.433Z,15.94
2019-02-25T14:48:21.026Z,16.45
2019-02-25T14:50:47.739Z,16.58
2019-02-25T14:53:55.254Z,16.57
2019-02-25T14:56:21.155Z,16.88
2019-02-25T14:58:48.952Z,16.46
2019-02-25T15:01:14.818Z,16.16
2019-02-25T15:03:40.703Z,16.12
2019-02-25T15:06:06.556Z,15.76
2019-02-25T15:08:32.419Z,15.57
2019-02-25T15:11:01.985Z,15.71
2019-02-25T15:13:28.070Z,15.76
2019-02-25T15:16:35.667Z,15.52
2019-02-25T15:21:50.109Z,15.05
2019-02-25T15:24:16.610Z,14.99
2019-02-25T15:26:43.333Z,15.09
2019-02-25T15:31:57.026Z,14.74
2019-02-25T15:34:23.494Z,14.64
2019-02-25T15:36:49.336Z,14.27
2019-02-25T15:42:02.721Z,13.93
2019-02-25T15:44:28.537Z,13.77
2019-02-25T15:46:54.376Z,13.61
2019-02-25T15:49:21.736Z,13.57
2019-02-25T15:51:48.041Z,13.56
2019-02-25T15:54:35.020Z,13.49
2019-02-25T15:57:01.579Z,13.33
2019-02-25T15:59:32.129Z,13.04
2019-02-25T16:01:55.278Z,13.02
2019-02-25T16:04:21.084Z,12.94
2019-02-25T16:09:23.775Z,12.76
2019-02-25T16:12:31.438Z,12.79
2019-02-25T16:14:57.664Z,12.76
2019-02-25T16:17:24.367Z,12.77
2019-02-25T16:23:07.668Z,12.41
2019-02-25T16:25:34.467Z,12.16
2019-02-25T16:28:01.494Z,12.11
2019-02-25T16:30:30.497Z,12.03
2019-02-25T16:32:55.135Z,11.86
2019-02-25T16:35:21.177Z,11.76
2019-02-25T16:37:50.848Z,11.53
2019-02-25T16:40:58.679Z,11.35
2019-02-25T16:43:25.828Z,11.19
2019-02-25T16:45:51.671Z,10.92
2019-02-25T16:48:19.022Z,10.85
2019-02-25T16:50:46.449Z,10.66
2019-02-25T16:53:15.549Z,10.18
2019-02-25T16:55:42.747Z,9.86
2019-02-25T16:58:29.893Z,9.64
2019-02-25T17:00:58.551Z,9.64
2019-02-25T17:03:45.927Z,9.65
2019-02-25T17:06:55.197Z,9.62
2019-02-25T17:11:59.783Z,9.18
2019-02-25T17:14:26.314Z,8.99
2019-02-25T17:17:12.020Z,8.58
2019-02-25T17:19:38.513Z,8.68
2019-02-25T17:22:05.632Z,8.68
2019-02-25T17:24:32.621Z,8.59
2019-02-25T17:27:00.047Z,8.51
2019-02-25T17:29:46.911Z,8.43
2019-02-25T17:32:14.460Z,8.43
2019-02-25T17:34:41.482Z,8.23
2019-02-25T17:37:10.266Z,8.17
2019-02-25T17:39:37.713Z,8.14
2019-02-25T17:42:05.606Z,7.99
2019-02-25T17:44:32.125Z,8.02
2019-02-25T17:47:00.216Z,7.85
2019-02-25T17:49:46.953Z,7.63
2019-02-25T17:52:14.207Z,7.63
2019-02-25T17:55:01.517Z,7.21
2019-02-25T17:57:50.299Z,7.29
2019-02-25T18:00:56.568Z,7.18
2019-02-25T18:03:44.373Z,6.98
2019-02-25T18:06:11.280Z,6.98
2019-02-25T18:08:37.742Z,6.69
2019-02-25T18:11:04.995Z,6.59
2019-02-25T18:13:51.270Z,6.58
2019-02-25T18:16:19.074Z,6.58
2019-02-25T18:18:47.466Z,6.50
2019-02-25T18:21:14.070Z,6.61
2019-02-25T18:23:40.011Z,6.72
2019-02-25T18:26:05.930Z,6.55
2019-02-25T18:28:31.767Z,6.39
2019-02-25T18:31:19.386Z,6.01
2019-02-25T18:34:06.785Z,5.78
2019-02-25T18:36:33.291Z,5.78
2019-02-25T18:39:21.375Z,5.50
2019-02-25T18:42:09.616Z,5.54
2019-02-25T18:44:55.907Z,5.51
2019-02-25T18:47:23.425Z,5.51
2019-02-25T18:50:31.173Z,4.92
2019-02-25T18:53:38.683Z,4.92
2019-02-25T18:56:46.178Z,4.79
2019-02-25T18:59:54.788Z,4.85
2019-02-25T19:02:21.656Z,4.84
2019-02-25T19:04:47.517Z,5.00
2019-02-25T19:07:15.390Z,4.95
2019-02-25T19:09:43.033Z,4.90
2019-02-25T19:12:08.965Z,4.67
2019-02-25T19:14:34.786Z,4.44
2019-02-25T19:17:02.149Z,4.54
2019-02-25T19:19:28.474Z,4.46
2019-02-25T19:22:15.805Z,4.25
2019-02-25T19:24:42.836Z,4.34
2019-02-25T19:27:10.972Z,4.28
2019-02-25T19:29:37.755Z,4.13
2019-02-25T19:32:03.591Z,4.12
2019-02-25T19:34:51.734Z,4.24
2019-02-25T19:37:17.140Z,4.37
2019-02-25T19:39:46.795Z,4.16
2019-02-25T19:42:15.589Z,3.82
2019-02-25T19:44:40.711Z,3.80
2019-02-25T19:47:07.938Z,3.63
2019-02-25T19:49:36.603Z,3.70
2019-02-25T19:52:02.110Z,3.71
2019-02-25T19:54:29.522Z,3.61
2019-02-25T19:56:57.866Z,3.74
2019-02-25T19:59:24.155Z,3.64
2019-02-25T20:01:51.306Z,3.53
2019-02-25T20:04:18.827Z,3.50
2019-02-25T20:06:47.148Z,3.46
2019-02-25T20:12:01.853Z,3.41
2019-02-25T20:14:31.225Z,3.40
2019-02-25T20:16:56.051Z,3.33
2019-02-25T20:19:21.983Z,3.23
2019-02-25T20:21:48.657Z,3.15
2019-02-25T20:24:16.935Z,3.37
2019-02-25T20:26:43.324Z,3.25
2019-02-25T20:29:11.067Z,2.91
2019-02-25T20:31:36.907Z,2.68
2019-02-25T20:34:02.777Z,2.33
2019-02-25T20:36:30.546Z,2.26
2019-02-25T20:38:56.316Z,2.47
2019-02-25T20:41:22.768Z,2.53
2019-02-25T20:43:53.937Z,2.58
2019-02-25T20:46:19.956Z,2.64
2019-02-25T20:48:48.391Z,2.64
2019-02-25T20:51:13.221Z,2.61
2019-02-25T20:53:39.108Z,2.58
2019-02-25T20:56:04.944Z,2.19
2019-02-25T20:58:30.761Z,2.24
2019-02-25T21:00:56.639Z,2.27
2019-02-25T21:03:23.173Z,2.39
2019-02-25T21:05:50.220Z,2.43
2019-02-25T21:11:08.636Z,2.53
2019-02-25T21:13:31.794Z,2.38
2019-02-25T21:16:00.979Z,2.30
2019-02-25T21:18:28.839Z,2.44
2019-02-25T21:20:54.470Z,2.29
2019-02-25T21:23:20.309Z,2.20
2019-02-25T21:25:46.134Z,2.08
2019-02-25T21:28:11.942Z,2.08
2019-02-25T21:30:41.184Z,2.05
2019-02-25T21:33:05.547Z,2.05
2019-02-25T21:35:35.398Z,2.04
2019-02-25T21:37:59.121Z,1.81
2019-02-25T21:40:27.830Z,1.65
2019-02-25T21:42:53.926Z,1.62
2019-02-25T21:45:22.423Z,1.67
2019-02-25T21:47:52.279Z,1.68
2019-02-25T21:51:01.389Z,1.73
2019-02-25T21:53:25.888Z,1.80
2019-02-25T21:55:53.502Z,1.38
2019-02-25T21:58:21.276Z,1.22
2019-02-25T22:00:47.329Z,1.18
2019-02-25T22:03:15.683Z,1.12
2019-02-25T22:05:40.923Z,1.27
2019-02-25T22:08:28.920Z,1.40
2019-02-25T22:10:54.890Z,1.52
2019-02-25T22:13:20.973Z,1.48
2019-02-25T22:15:48.692Z,1.30
2019-02-25T22:20:47.544Z,1.18
2019-02-25T22:23:14.075Z,0.93
2019-02-25T22:25:39.918Z,1.01
2019-02-25T22:28:07.578Z,1.12
2019-02-25T22:30:33.591Z,1.05
2019-02-25T22:33:00.689Z,1.11
2019-02-25T22:35:27.174Z,1.18
2019-02-25T22:37:55.617Z,1.23
2019-02-25T22:40:20.763Z,1.18
2019-02-25T22:42:47.903Z,0.99
2019-02-25T22:45:35.927Z,1.03
2019-02-25T22:48:01.916Z,0.83
2019-02-25T22:50:29.203Z,0.71
2019-02-25T22:52:58.308Z,0.51
2019-02-25T22:55:23.244Z,0.43
2019-02-25T22:57:51.197Z,0.65
2019-02-25T23:00:58.860Z,0.61
2019-02-25T23:06:01.766Z,0.75
2019-02-25T23:08:27.593Z,0.75
2019-02-25T23:10:54.163Z,0.77
2019-02-25T23:13:22.698Z,0.48
2019-02-25T23:15:49.553Z,0.52
2019-02-25T23:18:18.862Z,0.32
2019-02-25T23:20:44.416Z,0.22
2019-02-25T23:23:10.229Z,0.39
2019-02-25T23:25:36.071Z,0.31
2019-02-25T23:28:02.273Z,0.41
2019-02-25T23:30:29.651Z,0.46
2019-02-25T23:32:55.487Z,0.45
2019-02-25T23:35:23.082Z,0.36
2019-02-25T23:37:51.040Z,0.32
2019-02-25T23:40:16.973Z,0.14
2019-02-25T23:42:44.292Z,0.20
2019-02-25T23:45:52.251Z,-0.08
2019-02-25T23:48:18.093Z,0.26
2019-02-25T23:50:44.264Z,0.10
2019-02-25T23:53:10.121Z,0.12
2019-02-25T23:55:35.969Z,0.15
2019-02-25T23:58:01.808Z,0.12
